Time;durP1;ratioP1;P1;durP2;ratioP2;P2;SDS_P1;SDS_P2;PMS_P1;PMS_P2;Temp;Humidity;BMP_temperature;BMP_pressure;BME280_temperature;BME280_humidity;BME280_pressure;Samples;Min_cycle;Max_cycle;Signal;HPM_P1;HPM_P2
2022/07/01 00:01:47;;;;;;;0.30;0.30;;;;;;;13.15;100.00;99543.72;7396233;19;20032;-80
2022/07/01 00:04:13;;;;;;;0.20;0.10;;;;;;;13.20;100.00;99540.22;7395387;19;20414;-80
2022/07/01 00:06:40;;;;;;;1.42;1.13;;;;;;;13.19;100.00;99544.25;7395387;19;20343;-79
2022/07/01 00:09:06;;;;;;;0.40;0.20;;;;;;;13.18;100.00;99530.78;7395769;19;20011;-80
2022/07/01 00:11:32;;;;;;;1.17;0.70;;;;;;;13.19;100.00;99529.53;7395775;19;20022;-80
2022/07/01 00:13:58;;;;;;;2.47;0.52;;;;;;;13.16;100.00;99536.88;7394430;19;20018;-80
2022/07/01 00:16:24;;;;;;;0.60;0.40;;;;;;;13.16;100.00;99533.31;7395193;19;20018;-80
2022/07/01 00:18:51;;;;;;;1.30;0.30;;;;;;;13.16;100.00;99534.09;7393848;19;20035;-80
2022/07/01 00:21:17;;;;;;;0.20;0.20;;;;;;;13.17;100.00;99535.59;7396001;19;20532;-79
2022/07/01 00:23:43;;;;;;;0.77;0.35;;;;;;;13.16;100.00;99524.94;7395236;19;20472;-79
2022/07/01 00:26:09;;;;;;;1.00;0.57;;;;;;;13.13;100.00;99534.31;7393645;19;20419;-79
2022/07/01 00:28:35;;;;;;;0.65;0.38;;;;;;;13.03;100.00;99530.94;7394897;19;20041;-80
2022/07/01 00:31:02;;;;;;;1.58;0.63;;;;;;;13.06;100.00;99529.94;7394893;19;20051;-80
2022/07/01 00:33:28;;;;;;;2.00;0.55;;;;;;;13.09;100.00;99539.38;7392087;19;20035;-80
2022/07/01 00:35:54;;;;;;;1.08;0.30;;;;;;;13.12;100.00;99533.56;7394740;19;20486;-80
2022/07/01 00:38:20;;;;;;;2.00;1.05;;;;;;;13.14;100.00;99531.03;7396658;19;20025;-80
2022/07/01 00:40:54;;;;;;;2.10;0.57;;;;;;;13.14;100.00;99535.84;7395356;19;20019;-80
2022/07/01 00:43:24;;;;;;;1.92;1.05;;;;;;;13.13;100.00;99537.88;7395189;19;20046;-80
2022/07/01 00:45:53;;;;;;;2.17;0.70;;;;;;;13.02;100.00;99537.78;7394583;19;20055;-80
2022/07/01 00:48:21;;;;;;;5.25;1.02;;;;;;;13.01;100.00;99539.06;7392456;19;20031;-80
2022/07/01 00:50:47;;;;;;;3.10;0.90;;;;;;;13.01;100.00;99538.28;7394190;19;20015;-79
2022/07/01 00:53:14;;;;;;;5.57;1.33;;;;;;;13.02;100.00;99537.78;7392828;19;20019;-80
2022/07/01 00:55:42;;;;;;;1.63;0.98;;;;;;;13.03;100.00;99530.16;7392586;19;20031;-80
2022/07/01 00:58:09;;;;;;;0.63;0.63;;;;;;;13.02;100.00;99534.22;7392037;19;20022;-79
2022/07/01 01:00:38;;;;;;;0.77;0.43;;;;;;;13.03;100.00;99536.53;7394087;19;20019;-80
2022/07/01 01:03:10;;;;;;;1.45;0.85;;;;;;;13.03;100.00;99528.16;7394295;19;20018;-80
2022/07/01 01:05:38;;;;;;;3.60;0.40;;;;;;;13.03;100.00;99541.34;7393529;19;20014;-80
2022/07/01 01:08:07;;;;;;;1.27;0.50;;;;;;;13.02;100.00;99528.63;7393093;19;20455;-80
2022/07/01 01:10:36;;;;;;;1.27;0.30;;;;;;;13.01;100.00;99529.91;7391996;19;20010;-80
2022/07/01 01:13:03;;;;;;;1.15;0.43;;;;;;;12.94;100.00;99531.91;7393023;19;20022;-80
2022/07/01 01:15:30;;;;;;;3.20;0.43;;;;;;;12.90;100.00;99531.38;7392864;19;20382;-80
2022/07/01 01:17:57;;;;;;;1.33;0.70;;;;;;;12.89;100.00;99531.88;7391970;19;20031;-80
2022/07/01 01:20:26;;;;;;;1.58;0.70;;;;;;;12.89;100.00;99529.06;7396132;19;20014;-80
2022/07/01 01:22:52;;;;;;;2.30;0.65;;;;;;;12.97;100.00;99527.34;7392053;19;20084;-80
2022/07/01 01:25:18;;;;;;;1.70;0.77;;;;;;;12.86;100.00;99527.28;7393203;19;20344;-80
2022/07/01 01:27:45;;;;;;;9.07;1.02;;;;;;;12.74;100.00;99520.84;7392834;19;20018;-80
2022/07/01 01:30:13;;;;;;;0.30;0.20;;;;;;;12.64;100.00;99532.72;7393801;19;20410;-80
2022/07/01 01:32:40;;;;;;;0.65;0.65;;;;;;;12.61;100.00;99536.50;7391178;19;20020;-80
2022/07/01 01:35:08;;;;;;;0.20;0.20;;;;;;;12.84;100.00;99541.00;7389260;19;20020;-80
2022/07/01 01:37:35;;;;;;;3.72;0.35;;;;;;;12.92;100.00;99542.06;7393338;19;20018;-80
2022/07/01 01:40:02;;;;;;;2.85;0.60;;;;;;;12.97;100.00;99541.34;7393600;19;20023;-80
2022/07/01 01:42:29;;;;;;;1.13;0.40;;;;;;;12.99;100.00;99536.00;7392339;19;20350;-80
2022/07/01 01:44:55;;;;;;;1.38;0.40;;;;;;;12.96;100.00;99537.00;7390784;19;20031;-80
2022/07/01 01:47:21;;;;;;;4.43;0.98;;;;;;;12.92;100.00;99528.84;7390150;19;20036;-80
2022/07/01 01:49:47;;;;;;;2.63;1.15;;;;;;;12.87;100.00;99523.22;7392561;19;20090;-80
2022/07/01 01:52:13;;;;;;;7.38;0.73;;;;;;;12.76;100.00;99525.94;7390191;19;20070;-80
2022/07/01 01:54:39;;;;;;;0.73;0.22;;;;;;;12.67;100.00;99526.13;7390391;19;20013;-80
2022/07/01 01:57:06;;;;;;;0.93;0.52;;;;;;;12.59;100.00;99527.84;7392646;19;20014;-80
2022/07/01 01:59:32;;;;;;;1.90;0.47;;;;;;;12.48;100.00;99528.53;7391648;19;20081;-80
2022/07/01 02:01:58;;;;;;;1.70;0.52;;;;;;;12.42;100.00;99526.97;7392565;19;20028;-80
2022/07/01 02:04:24;;;;;;;0.57;0.47;;;;;;;12.33;100.00;99530.72;7392459;19;20026;-80
2022/07/01 02:06:52;;;;;;;2.67;0.57;;;;;;;12.21;100.00;99539.50;7390918;19;20015;-80
2022/07/01 02:09:18;;;;;;;1.65;0.65;;;;;;;12.21;100.00;99539.50;7392004;19;20047;-80
2022/07/01 02:11:44;;;;;;;1.02;0.98;;;;;;;12.12;100.00;99535.63;7390348;19;20480;-80
2022/07/01 02:14:10;;;;;;;0.90;0.82;;;;;;;12.09;100.00;99531.00;7390565;19;20019;-80
2022/07/01 02:16:36;;;;;;;1.00;0.30;;;;;;;12.23;100.00;99531.38;7391344;19;20022;-80
2022/07/01 02:19:03;;;;;;;1.55;0.32;;;;;;;12.23;100.00;99531.38;7396939;19;20037;-80
2022/07/01 02:21:29;;;;;;;2.30;0.47;;;;;;;12.27;100.00;99515.94;7399199;19;20039;-80
2022/07/01 02:23:55;;;;;;;2.38;0.73;;;;;;;12.27;100.00;99523.56;7397375;19;20030;-80
2022/07/01 02:26:22;;;;;;;2.30;0.40;;;;;;;12.22;100.00;99518.69;7397682;19;20038;-80
2022/07/01 02:28:48;;;;;;;1.55;0.38;;;;;;;12.16;100.00;99518.63;7399220;19;20019;-80
2022/07/01 02:31:14;;;;;;;0.98;0.47;;;;;;;12.07;100.00;99518.81;7397436;19;20022;-80
2022/07/01 02:33:40;;;;;;;3.25;0.88;;;;;;;11.99;100.00;99521.28;7397713;19;20483;-80
2022/07/01 02:36:06;;;;;;;2.55;1.00;;;;;;;11.91;100.00;99528.53;7397115;19;20034;-80
2022/07/01 02:38:32;;;;;;;1.95;0.30;;;;;;;11.90;100.00;99527.03;7401332;19;20340;-80
2022/07/01 02:40:58;;;;;;;8.55;1.13;;;;;;;11.93;100.00;99533.66;7397622;19;20027;-80
2022/07/01 02:43:24;;;;;;;0.95;0.70;;;;;;;11.98;100.00;99527.34;7397385;19;20022;-80
2022/07/01 02:45:51;;;;;;;1.13;0.47;;;;;;;12.07;100.00;99530.75;7398469;19;20021;-80
2022/07/01 02:48:17;;;;;;;0.73;0.40;;;;;;;12.13;100.00;99531.56;7397810;19;20059;-80
2022/07/01 02:50:43;;;;;;;0.88;0.47;;;;;;;12.16;100.00;99529.81;7395766;19;20498;-80
2022/07/01 02:53:09;;;;;;;0.90;0.40;;;;;;;12.28;100.00;99531.41;7397153;19;20018;-81
2022/07/01 02:55:35;;;;;;;2.70;0.40;;;;;;;12.35;100.00;99528.19;7396185;19;20371;-80
2022/07/01 02:58:04;;;;;;;0.40;0.40;;;;;;;12.36;100.00;99542.91;7396236;19;20567;-81
2022/07/01 03:00:30;;;;;;;0.45;0.45;;;;;;;12.41;100.00;99531.03;7396528;19;20011;-81
2022/07/01 03:02:56;;;;;;;0.30;0.30;;;;;;;12.34;100.00;99537.06;7398543;19;20018;-81
2022/07/01 03:05:23;;;;;;;1.90;0.98;;;;;;;12.26;100.00;99536.00;7396272;19;20037;-81
2022/07/01 03:07:49;;;;;;;0.52;0.40;;;;;;;12.17;100.00;99529.31;7395706;19;20372;-81
2022/07/01 03:10:15;;;;;;;1.27;0.77;;;;;;;12.12;100.00;99534.84;7400268;19;20032;-81
2022/07/01 03:12:41;;;;;;;0.50;0.45;;;;;;;12.08;100.00;99539.88;7396461;19;20030;-80
2022/07/01 03:15:09;;;;;;;1.40;0.50;;;;;;;11.98;100.00;99544.84;7395459;19;20018;-81
2022/07/01 03:17:38;;;;;;;1.80;0.68;;;;;;;11.94;100.00;99535.16;7396115;19;20013;-81
2022/07/01 03:20:10;;;;;;;1.92;0.47;;;;;;;11.88;100.00;99540.72;7398149;19;20082;-80
2022/07/01 03:22:37;;;;;;;0.28;0.28;;;;;;;11.88;100.00;99551.88;7395990;19;20353;-81
2022/07/01 03:25:04;;;;;;;2.60;1.13;;;;;;;11.89;100.00;99552.66;7396246;19;20029;-81
2022/07/01 03:27:32;;;;;;;0.60;0.60;;;;;;;11.90;100.00;99554.94;7395999;19;20022;-80
2022/07/01 03:29:58;;;;;;;0.22;0.13;;;;;;;11.93;100.00;99553.94;7397358;19;20010;-81
2022/07/01 03:32:24;;;;;;;1.10;0.47;;;;;;;11.95;100.00;99554.22;7395054;19;20038;-81
2022/07/01 03:34:52;;;;;;;0.70;0.45;;;;;;;12.00;100.00;99559.09;7395265;19;20030;-81
2022/07/01 03:37:19;;;;;;;2.75;0.90;;;;;;;12.06;100.00;99550.78;7398352;19;20035;-81
2022/07/01 03:39:46;;;;;;;0.52;0.15;;;;;;;12.11;100.00;99556.41;7398817;19;20014;-81
2022/07/01 03:42:12;;;;;;;1.35;0.50;;;;;;;12.13;100.00;99556.69;7395075;19;20014;-81
2022/07/01 03:44:38;;;;;;;2.30;0.50;;;;;;;12.14;100.00;99569.38;7396775;19;20018;-81
2022/07/01 03:47:05;;;;;;;0.28;0.28;;;;;;;12.14;100.00;99558.22;7394910;19;20475;-81
2022/07/01 03:49:32;;;;;;;1.42;0.45;;;;;;;12.16;100.00;99558.50;7396318;19;20039;-80
2022/07/01 03:51:59;;;;;;;1.48;0.73;;;;;;;12.18;100.00;99558.75;7394794;19;20015;-81
2022/07/01 03:54:32;;;;;;;1.13;0.60;;;;;;;12.23;100.00;99564.88;7394555;19;20349;-81
2022/07/01 03:57:00;;;;;;;2.45;0.32;;;;;;;12.24;100.00;99569.19;7394717;19;20508;-81
2022/07/01 03:59:27;;;;;;;0.52;0.38;;;;;;;12.23;100.00;99576.06;7395129;19;20014;-81
2022/07/01 04:01:54;;;;;;;0.75;0.52;;;;;;;12.28;100.00;99572.56;7394202;19;20022;-81
2022/07/01 04:04:22;;;;;;;0.35;0.35;;;;;;;12.31;100.00;99577.13;7395783;19;20081;-81
2022/07/01 04:06:48;;;;;;;2.28;1.02;;;;;;;12.34;100.00;99579.72;7395340;19;20032;-81
2022/07/01 04:09:16;;;;;;;4.97;1.02;;;;;;;12.38;100.00;99582.28;7394922;19;20025;-81
2022/07/01 04:11:43;;;;;;;0.90;0.40;;;;;;;12.41;100.00;99575.72;7394334;19;20019;-81
2022/07/01 04:14:10;;;;;;;0.47;0.47;;;;;;;12.44;100.00;99585.88;7392793;19;20014;-81
2022/07/01 04:16:36;;;;;;;2.90;0.52;;;;;;;12.44;100.00;99589.44;7395961;19;20013;-81
2022/07/01 04:19:03;;;;;;;0.50;0.45;;;;;;;12.47;100.00;99596.06;7395280;19;20034;-81
2022/07/01 04:24:14;;;;;;;0.40;0.40;;;;;;;12.52;100.00;99604.50;7395738;19;20471;-81
2022/07/01 04:26:42;;;;;;;0.30;0.30;;;;;;;12.56;100.00;99601.50;7394966;19;20042;-81
2022/07/01 04:29:09;;;;;;;1.38;0.55;;;;;;;12.55;100.00;99592.34;7396078;19;20040;-81
2022/07/01 04:31:36;;;;;;;4.60;1.05;;;;;;;12.52;100.00;99606.50;7395015;19;20018;-80
2022/07/01 04:34:03;;;;;;;5.03;0.90;;;;;;;12.50;100.00;99607.03;7394831;19;20019;-81
2022/07/01 04:36:29;;;;;;;1.42;0.28;;;;;;;12.51;100.00;99607.78;7394748;19;20364;-81
2022/07/01 04:38:56;;;;;;;0.60;0.47;;;;;;;12.53;100.00;99605.25;7398461;19;20015;-81
2022/07/01 04:44:07;;;;;;;0.40;0.35;;;;;;;12.55;100.00;99611.91;7394511;19;20022;-81
2022/07/01 04:46:33;;;;;;;2.28;0.57;;;;;;;12.56;100.00;99609.88;7393408;19;20021;-81
2022/07/01 04:48:59;;;;;;;0.88;0.40;;;;;;;12.58;100.00;99613.69;7395797;19;20359;-81
2022/07/01 04:51:25;;;;;;;0.93;0.50;;;;;;;12.62;100.00;99608.66;7393039;19;20018;-80
2022/07/01 04:53:52;;;;;;;10.85;0.88;;;;;;;12.67;100.00;99609.94;7392750;19;20475;-80
2022/07/01 04:56:18;;;;;;;0.35;0.35;;;;;;;12.70;100.00;99606.16;7392686;19;20468;-81
2022/07/01 04:58:44;;;;;;;0.55;0.55;;;;;;;12.70;100.00;99608.97;7394588;19;20038;-81
2022/07/01 05:01:10;;;;;;;0.77;0.55;;;;;;;12.70;100.00;99618.13;7393899;19;20015;-81
2022/07/01 05:03:37;;;;;;;0.50;0.50;;;;;;;12.71;100.00;99618.88;7394496;19;20018;-81
2022/07/01 05:06:03;;;;;;;0.75;0.65;;;;;;;12.69;100.00;99618.63;7392398;19;20433;-81
2022/07/01 05:08:29;;;;;;;4.13;0.90;;;;;;;12.73;100.00;99616.38;7393422;19;20468;-81
2022/07/01 05:10:55;;;;;;;1.30;0.40;;;;;;;12.72;100.00;99612.03;7392042;19;20018;-81
2022/07/01 05:13:22;;;;;;;1.17;0.45;;;;;;;12.78;100.00;99610.81;7392839;19;20018;-81
2022/07/01 05:15:48;;;;;;;2.08;0.63;;;;;;;12.79;100.00;99612.34;7391270;19;20078;-81
2022/07/01 05:23:44;;;;;;;1.13;0.40;;;;;;;12.95;100.00;99619.31;7392824;19;20035;-81
2022/07/01 05:26:15;;;;;;;1.05;0.65;;;;;;;12.98;100.00;99626.72;7391354;19;20011;-81
2022/07/01 05:28:42;;;;;;;1.23;0.77;;;;;;;13.04;100.00;99619.13;7393566;19;20019;-81
2022/07/01 05:31:09;;;;;;;1.67;1.02;;;;;;;13.13;100.00;99618.97;7390674;19;20369;-81
2022/07/01 05:33:35;;;;;;;1.30;0.88;;;;;;;13.19;100.00;99619.75;7391347;19;20022;-81
2022/07/01 05:36:01;;;;;;;1.33;0.55;;;;;;;13.28;100.00;99613.97;7393091;19;20051;-80
2022/07/01 05:38:28;;;;;;;1.30;1.00;;;;;;;13.37;100.00;99616.56;7395350;19;20027;-81
2022/07/01 05:40:54;;;;;;;2.50;0.88;;;;;;;13.42;100.00;99618.63;7392653;19;20033;-81
2022/07/01 05:43:20;;;;;;;0.40;0.20;;;;;;;13.46;100.00;99613.56;7392644;19;20037;-81
2022/07/01 05:45:46;;;;;;;1.20;0.93;;;;;;;13.53;100.00;99618.69;7391864;19;20566;-80
2022/07/01 05:48:12;;;;;;;3.35;1.25;;;;;;;13.63;100.00;99617.19;7392485;19;20041;-81
2022/07/01 05:50:46;;;;;;;11.55;2.63;;;;;;;13.70;100.00;99621.56;7393036;19;20018;-79
2022/07/01 05:53:13;;;;;;;7.03;2.72;;;;;;;13.72;100.00;99618.25;7388467;19;20014;-81
2022/07/01 05:55:39;;;;;;;8.93;2.17;;;;;;;13.77;100.00;99620.31;7392780;19;20021;-81
2022/07/01 05:58:09;;;;;;;5.43;2.03;;;;;;;13.81;100.00;99618.03;7392290;19;20566;-80
2022/07/01 06:00:35;;;;;;;8.07;1.73;;;;;;;13.82;100.00;99616.78;7390753;19;20039;-81
2022/07/01 06:03:01;;;;;;;6.57;2.33;;;;;;;13.90;100.00;99617.81;7392307;19;20011;-81
2022/07/01 06:05:29;;;;;;;1.23;0.65;;;;;;;13.97;100.00;99622.94;7392163;19;20343;-81
2022/07/01 06:07:55;;;;;;;3.35;0.65;;;;;;;14.01;100.00;99620.66;7390585;19;20011;-81
2022/07/01 06:10:22;;;;;;;0.90;0.77;;;;;;;14.04;100.00;99623.19;7394853;19;20017;-81
2022/07/01 06:12:48;;;;;;;1.30;0.55;;;;;;;14.09;100.00;99624.47;7390157;19;20435;-81
2022/07/01 06:15:14;;;;;;;2.45;0.60;;;;;;;14.15;100.00;99622.47;7388381;19;20007;-81
2022/07/01 06:17:41;;;;;;;2.65;0.85;;;;;;;14.13;100.00;99627.81;7391883;19;20019;-81
2022/07/01 06:20:08;;;;;;;5.60;0.77;;;;;;;14.18;100.00;99622.22;7392937;19;20049;-81
2022/07/01 06:22:34;;;;;;;2.10;1.05;;;;;;;14.20;100.00;99625.28;7391856;19;20015;-80
2022/07/01 06:25:02;;;;;;;1.65;0.70;;;;;;;14.24;100.00;99622.22;7391396;19;20027;-81
2022/07/01 06:27:28;;;;;;;1.00;0.30;;;;;;;14.29;100.00;99624.31;7390602;19;20018;-81
2022/07/01 06:29:54;;;;;;;2.63;0.90;;;;;;;14.28;100.00;99620.72;7392192;19;20040;-81
2022/07/01 06:32:21;;;;;;;1.15;0.50;;;;;;;14.27;100.00;99624.03;7389889;19;20029;-81
2022/07/01 06:34:49;;;;;;;0.60;0.57;;;;;;;14.31;100.00;99618.97;7389362;19;20018;-81
2022/07/01 06:37:15;;;;;;;0.30;0.30;;;;;;;14.36;100.00;99615.38;7390886;19;20030;-81
2022/07/01 06:39:41;;;;;;;1.88;1.00;;;;;;;14.38;100.00;99624.06;7393760;19;20487;-81
2022/07/01 06:42:07;;;;;;;4.75;0.47;;;;;;;14.40;100.00;99618.72;7390897;19;20018;-81
2022/07/01 06:44:33;;;;;;;2.65;0.88;;;;;;;14.46;100.00;99616.69;7391261;19;20030;-81
2022/07/01 06:46:59;;;;;;;0.82;0.50;;;;;;;14.47;100.00;99620.28;7391368;19;20322;-81
2022/07/01 06:49:25;;;;;;;0.63;0.30;;;;;;;14.43;100.00;99614.91;7392466;19;20086;-81
2022/07/01 06:51:52;;;;;;;2.58;1.15;;;;;;;14.42;100.00;99630.94;7391056;19;20023;-81
2022/07/01 06:54:18;;;;;;;3.25;0.52;;;;;;;14.46;100.00;99630.69;7389906;19;20015;-81
2022/07/01 06:56:44;;;;;;;1.88;0.30;;;;;;;14.45;100.00;99623.56;7390063;19;20015;-82
2022/07/01 06:59:10;;;;;;;0.45;0.45;;;;;;;14.48;100.00;99625.34;7390273;19;20011;-81
2022/07/01 07:01:37;;;;;;;2.95;0.70;;;;;;;14.57;100.00;99629.94;7389400;19;20344;-81
2022/07/01 07:04:03;;;;;;;4.03;1.05;;;;;;;14.71;100.00;99629.69;7391257;19;20021;-81
2022/07/01 07:06:29;;;;;;;0.35;0.30;;;;;;;14.82;100.00;99624.09;7398505;19;20014;-81
2022/07/01 07:08:55;;;;;;;2.63;0.43;;;;;;;14.91;100.00;99632.25;7396996;19;20032;-81
2022/07/01 07:11:21;;;;;;;1.85;0.68;;;;;;;15.00;100.00;99629.19;7395978;19;20078;-81
2022/07/01 07:13:48;;;;;;;0.90;0.30;;;;;;;15.12;100.00;99630.69;7395484;19;20018;-81
2022/07/01 07:16:14;;;;;;;0.90;0.43;;;;;;;15.21;100.00;99638.06;7396567;19;20010;-82
2022/07/01 07:18:41;;;;;;;3.13;0.47;;;;;;;15.25;100.00;99632.19;7396720;19;20014;-81
2022/07/01 07:21:07;;;;;;;0.95;0.65;;;;;;;15.31;100.00;99627.34;7395601;19;20357;-81
2022/07/01 07:23:34;;;;;;;0.52;0.22;;;;;;;15.36;100.00;99632.16;7397208;19;20007;-82
2022/07/01 07:26:00;;;;;;;1.20;0.55;;;;;;;15.48;100.00;99630.91;7397209;19;20010;-81
2022/07/01 07:28:26;;;;;;;0.35;0.35;;;;;;;15.51;100.00;99638.28;7397876;19;20026;-82
2022/07/01 07:30:52;;;;;;;1.75;0.68;;;;;;;15.64;100.00;99635.69;7395684;19;20078;-81
2022/07/01 07:33:18;;;;;;;0.88;0.40;;;;;;;15.68;100.00;99636.22;7397092;19;20014;-82
2022/07/01 07:35:44;;;;;;;0.63;0.13;;;;;;;15.78;100.00;99629.78;7397306;19;20426;-82
2022/07/01 07:38:11;;;;;;;0.28;0.25;;;;;;;15.97;100.00;99634.78;7397106;19;20007;-82
2022/07/01 07:40:37;;;;;;;1.30;0.40;;;;;;;16.06;100.00;99632.47;7393189;19;20032;-82
2022/07/01 07:43:05;;;;;;;2.00;0.50;;;;;;;16.21;100.00;99632.88;7395022;19;20024;-83
2022/07/01 07:45:31;;;;;;;2.88;0.22;;;;;;;16.34;100.00;99630.25;7396288;19;20031;-82
2022/07/01 07:47:57;;;;;;;1.20;0.55;;;;;;;16.34;100.00;99621.81;7395074;19;20030;-82
2022/07/01 07:50:24;;;;;;;0.32;0.32;;;;;;;16.40;100.00;99627.41;7399255;19;20024;-82
2022/07/01 07:52:50;;;;;;;1.23;0.43;;;;;;;16.39;100.00;99625.88;7395543;19;20015;-82
2022/07/01 07:55:16;;;;;;;2.65;0.32;;;;;;;16.38;100.00;99630.72;7393867;19;20025;-82
2022/07/01 07:57:42;;;;;;;0.80;0.15;;;;;;;16.47;100.00;99624.81;7396254;19;20014;-82
2022/07/01 08:00:11;;;;;;;0.38;0.28;;;;;;;16.53;100.00;99625.53;7398174;19;20023;-83
2022/07/01 08:02:41;;;;;;;1.27;0.30;;;;;;;16.55;100.00;99622.97;7395750;19;20014;-82
2022/07/01 08:05:09;;;;;;;2.05;0.30;;;;;;;16.59;100.00;99631.88;7394431;19;20017;-83
2022/07/01 08:07:36;;;;;;;0.50;0.32;;;;;;;16.70;100.00;99630.28;7395401;19;20074;-82
2022/07/01 08:10:05;;;;;;;0.77;0.38;;;;;;;16.77;100.00;99626.91;7396164;19;20022;-82
2022/07/01 08:12:31;;;;;;;0.93;0.55;;;;;;;16.83;100.00;99633.25;7394347;19;20041;-82
2022/07/01 08:14:58;;;;;;;2.30;0.40;;;;;;;16.84;100.00;99629.16;7392903;19;20348;-83
2022/07/01 08:17:24;;;;;;;2.20;0.57;;;;;;;16.85;100.00;99636.31;7392584;19;20010;-82
2022/07/01 08:19:51;;;;;;;0.17;0.10;;;;;;;16.83;100.00;99638.88;7396068;19;20018;-83
2022/07/01 08:22:17;;;;;;;0.63;0.60;;;;;;;16.87;100.00;99637.28;7395718;19;20018;-83
2022/07/01 08:24:43;;;;;;;1.25;0.30;;;;;;;16.91;100.00;99639.84;7394031;19;20025;-83
2022/07/01 08:27:09;;;;;;;3.17;0.73;;;;;;;16.86;100.00;99632.19;7395398;19;20042;-83
2022/07/01 08:29:35;;;;;;;1.77;0.20;;;;;;;16.91;100.00;99637.03;7396406;19;20086;-82
2022/07/01 08:32:01;;;;;;;1.90;0.73;;;;;;;16.99;100.00;99637.97;7395006;19;20022;-83
2022/07/01 08:34:28;;;;;;;1.33;0.60;;;;;;;17.13;100.00;99639.66;7393836;19;20035;-83
2022/07/01 08:36:54;;;;;;;0.60;0.32;;;;;;;17.18;100.00;99636.00;7395149;19;20014;-83
2022/07/01 08:39:21;;;;;;;1.15;0.45;;;;;;;17.15;100.00;99634.97;7396578;19;20034;-83
2022/07/01 08:41:48;;;;;;;1.33;0.40;;;;;;;17.19;100.00;99634.72;7394492;19;20039;-84
2022/07/01 08:44:14;;;;;;;1.40;0.17;;;;;;;17.25;100.00;99635.41;7396550;19;20336;-83
2022/07/01 08:46:41;;;;;;;1.20;0.52;;;;;;;17.25;100.00;99641.03;7394270;19;20023;-82
2022/07/01 08:49:07;;;;;;;0.10;0.10;;;;;;;17.32;100.00;99654.53;7393438;19;20051;-83
2022/07/01 08:51:33;;;;;;;1.30;0.43;;;;;;;17.28;100.00;99646.38;7393668;19;20033;-84
2022/07/01 08:53:59;;;;;;;1.10;0.65;;;;;;;17.26;100.00;99645.41;7394448;19;20464;-83
2022/07/01 08:56:41;;;;;;;1.35;0.38;;;;;;;17.26;100.00;99653.84;7393627;19;20018;-84
2022/07/01 08:59:12;;;;;;;1.23;0.38;;;;;;;17.15;100.00;99662.38;7395712;19;20029;-84
2022/07/01 09:01:39;;;;;;;1.80;0.30;;;;;;;17.08;100.00;99658.09;7393103;19;20021;-84
2022/07/01 09:04:16;;;;;;;0.95;0.30;;;;;;;17.02;100.00;99648.19;7394157;19;20079;-83
2022/07/01 09:06:43;;;;;;;1.00;0.40;;;;;;;16.99;100.00;99650.00;7393562;19;20483;-84
2022/07/01 09:09:15;;;;;;;0.63;0.30;;;;;;;16.97;100.00;99651.78;7395831;19;20022;-84
2022/07/01 09:11:55;;;;;;;3.17;0.77;;;;;;;16.95;100.00;99660.00;7393956;19;20021;-84
2022/07/01 09:14:24;;;;;;;1.77;0.55;;;;;;;16.94;100.00;99669.72;7393335;19;20034;-84
2022/07/01 09:16:54;;;;;;;0.73;0.20;;;;;;;16.95;100.00;99648.75;7392776;19;20014;-84
2022/07/01 09:19:22;;;;;;;2.15;0.50;;;;;;;17.07;100.00;99667.03;7396045;19;20039;-84
2022/07/01 09:21:50;;;;;;;0.80;0.60;;;;;;;17.13;100.00;99662.91;7392954;19;20050;-84
2022/07/01 09:24:34;;;;;;;0.47;0.35;;;;;;;17.19;100.00;99657.22;7393906;19;20345;-84
2022/07/01 09:27:25;;;;;;;0.47;0.38;;;;;;;17.30;100.00;99659.94;7394090;19;20026;-85
2022/07/01 09:29:50;;;;;;;0.98;0.57;;;;;;;17.46;100.00;99664.63;7394218;19;20457;-85
2022/07/01 09:32:20;;;;;;;2.28;0.55;;;;;;;17.62;100.00;99666.53;7392440;19;20142;-84
2022/07/01 09:34:53;;;;;;;1.20;0.40;;;;;;;17.75;100.00;99663.84;7391247;19;20029;-85
2022/07/01 09:37:24;;;;;;;0.60;0.52;;;;;;;17.86;100.00;99666.53;7394942;19;20018;-85
2022/07/01 09:39:51;;;;;;;3.63;0.32;;;;;;;17.96;100.00;99662.03;7395133;19;20051;-85
2022/07/01 09:42:18;;;;;;;1.02;0.22;;;;;;;18.06;100.00;99659.63;7393358;19;20014;-84
2022/07/01 09:45:11;;;;;;;2.15;0.75;;;;;;;18.14;100.00;99661.31;7391949;19;20019;-85
2022/07/01 09:47:43;;;;;;;1.02;0.22;;;;;;;18.19;100.00;99659.72;7391040;19;20049;-85
2022/07/01 09:50:09;;;;;;;0.73;0.13;;;;;;;18.29;100.00;99660.06;7394735;19;20336;-85
2022/07/01 09:52:36;;;;;;;0.30;0.20;;;;;;;18.44;100.00;99669.63;7393632;19;20026;-84
2022/07/01 09:55:03;;;;;;;1.15;0.10;;;;;;;18.45;100.00;99673.22;7392095;19;20017;-85
2022/07/01 09:57:29;;;;;;;6.13;0.73;;;;;;;18.50;100.00;99672.34;7391650;19;20019;-85
2022/07/01 09:59:55;;;;;;;3.30;1.27;;;;;;;18.62;100.00;99676.56;7393069;19;20074;-85
2022/07/01 10:02:22;;;;;;;2.67;0.32;;;;;;;18.73;100.00;99684.84;7392630;19;20082;-85
2022/07/01 10:04:53;;;;;;;1.40;0.30;;;;;;;18.79;100.00;99675.00;7391381;19;20038;-85
2022/07/01 10:07:34;;;;;;;4.32;0.60;;;;;;;18.89;100.00;99678.19;7392385;19;20022;-84
2022/07/01 10:10:28;;;;;;;0.57;0.20;;;;;;;18.95;100.00;99670.38;7392750;19;20424;-85
2022/07/01 10:12:56;;;;;;;0.60;0.43;;;;;;;19.03;100.00;99682.59;7391170;19;20022;-85
2022/07/01 10:15:23;;;;;;;0.65;0.17;;;;;;;18.99;100.00;99675.72;7391834;19;20039;-84
2022/07/01 10:17:51;;;;;;;1.65;0.20;;;;;;;18.91;100.00;99669.94;7392964;19;20030;-85
2022/07/01 10:20:22;;;;;;;1.85;0.32;;;;;;;18.91;100.00;99673.53;7393364;19;20351;-84
2022/07/01 10:22:50;;;;;;;1.95;0.38;;;;;;;19.01;100.00;99670.31;7392031;19;20014;-84
2022/07/01 10:25:48;;;;;;;0.65;0.22;;;;;;;19.06;100.00;99670.19;7392381;19;20038;-84
2022/07/01 10:28:27;;;;;;;0.50;0.30;;;;;;;19.00;100.00;99669.53;7392320;19;20501;-84
2022/07/01 10:31:05;;;;;;;0.90;0.30;;;;;;;18.96;100.00;99679.63;7391937;19;20368;-84
2022/07/01 10:33:31;;;;;;;0.98;0.13;;;;;;;19.01;100.00;99673.91;7391457;19;20045;-84
2022/07/01 10:36:07;;;;;;;3.67;0.28;;;;;;;19.09;100.00;99668.38;7392822;19;20018;-84
2022/07/01 10:38:34;;;;;;;2.10;0.17;;;;;;;19.17;100.00;99683.34;7394686;19;20003;-83
2022/07/01 10:41:10;;;;;;;1.60;0.20;;;;;;;19.20;100.00;99680.25;7399682;19;20018;-84
2022/07/01 10:43:37;;;;;;;0.90;0.10;;;;;;;19.11;100.00;99677.81;7398205;19;20021;-84
2022/07/01 10:46:04;;;;;;;4.30;0.20;;;;;;;18.89;100.00;99672.53;7400233;19;20082;-84
2022/07/01 10:48:33;;;;;;;0.38;0.10;;;;;;;18.54;100.00;99681.28;7399294;19;20414;-83
2022/07/01 10:51:00;;;;;;;0.20;0.20;;;;;;;18.11;100.00;99673.63;7402368;19;20018;-84
2022/07/01 10:53:47;;;;;;;1.05;0.10;;;;;;;17.75;100.00;99685.59;7412469;19;20086;-83
2022/07/01 10:56:17;;;;;;;0.20;0.20;;;;;;;17.48;100.00;99692.28;7408765;19;20023;-84
2022/07/01 10:58:43;;;;;;;0.50;0.20;;;;;;;17.27;100.00;99686.31;7401922;19;20507;-84
2022/07/01 11:01:10;;;;;;;4.88;0.38;;;;;;;17.11;100.00;99684.41;7397552;19;20010;-84
2022/07/01 11:03:39;;;;;;;0.20;0.00;;;;;;;17.10;100.00;99688.50;7399250;19;20018;-83
2022/07/01 11:06:05;;;;;;;4.75;0.90;;;;;;;17.30;100.00;99685.28;7400910;19;20082;-83
2022/07/01 11:08:31;;;;;;;1.95;0.50;;;;;;;17.62;100.00;99686.25;7398259;19;19998;-84
2022/07/01 11:11:04;;;;;;;1.02;0.57;;;;;;;18.16;100.00;99681.25;7397088;19;20014;-84
2022/07/01 11:13:31;;;;;;;3.30;0.43;;;;;;;18.53;100.00;99688.22;7398126;19;20031;-83
2022/07/01 11:15:57;;;;;;;1.48;0.30;;;;;;;18.82;100.00;99678.78;7396598;19;20018;-83
2022/07/01 11:18:24;;;;;;;1.80;0.43;;;;;;;19.21;100.00;99681.00;7396552;19;20022;-83
2022/07/01 11:20:50;;;;;;;0.63;0.35;;;;;;;19.51;100.00;99679.44;7394082;19;20022;-83
2022/07/01 11:23:16;;;;;;;6.55;0.55;;;;;;;19.75;100.00;99683.38;7396689;19;20096;-84
2022/07/01 11:25:42;;;;;;;0.35;0.10;;;;;;;20.02;100.00;99673.56;7396172;19;20031;-83
2022/07/01 11:28:10;;;;;;;1.17;0.40;;;;;;;20.04;100.00;99682.28;7397869;19;20037;-84
2022/07/01 11:30:37;;;;;;;0.63;0.20;;;;;;;20.28;100.00;99674.34;7395695;19;20022;-84
2022/07/01 11:33:03;;;;;;;1.50;0.28;;;;;;;20.18;100.00;99675.31;7398060;19;20022;-84
2022/07/01 11:41:19;;;;;;;0.40;0.17;;;;;;;20.79;100.00;99671.88;7397381;19;20019;-83
2022/07/01 11:43:46;;;;;;;0.55;0.30;;;;;;;20.68;100.00;99674.97;7395889;19;20020;-84